Time;durP1;ratioP1;P1;durP2;ratioP2;P2;SDS_P1;SDS_P2;PMS_P1;PMS_P2;Temp;Humidity;BMP_temperature;BMP_pressure;BME280_temperature;BME280_humidity;BME280_pressure;Samples;Min_cycle;Max_cycle;Signal;HPM_P1;HPM_P2
2022/08/20 00:03:30;;;;;;;2.30;2.10;;;;;;;19.82;100.00;101184.63;21049178;28;20051;-75
2022/08/20 00:13:36;;;;;;;2.50;2.30;;;;;;;19.80;100.00;101181.19;21047782;28;20052;-75
2022/08/20 00:23:40;;;;;;;2.22;2.03;;;;;;;19.81;100.00;101176.66;21046338;28;20062;-75
2022/08/20 00:33:42;;;;;;;2.33;2.13;;;;;;;19.56;100.00;101141.97;21033409;28;20074;-74
2022/08/20 00:43:51;;;;;;;2.22;2.03;;;;;;;19.79;100.00;101184.91;21045485;28;20040;-74
2022/08/20 00:53:55;;;;;;;2.25;2.00;;;;;;;19.63;100.00;101160.31;21045235;28;20050;-74
2022/08/20 01:03:57;;;;;;;2.20;1.97;;;;;;;19.79;100.00;101190.31;21044726;28;20467;-74
2022/08/20 01:24:31;;;;;;;2.15;1.95;;;;;;;19.77;100.00;101191.44;21029515;28;20405;-75
2022/08/20 01:34:33;;;;;;;1.70;1.60;;;;;;;19.59;100.00;101161.59;21035398;28;20089;-75
2022/08/20 01:44:36;;;;;;;1.83;1.73;;;;;;;19.77;100.00;101203.09;21042942;28;20109;-74
2022/08/20 01:54:40;;;;;;;1.80;1.52;;;;;;;19.78;100.00;101214.78;21041734;28;20098;-75
2022/08/20 02:04:41;;;;;;;1.70;1.60;;;;;;;19.77;100.00;101205.81;21041704;28;20051;-75
2022/08/20 02:14:45;;;;;;;1.92;1.67;;;;;;;19.63;100.00;101184.63;21043090;28;20052;-75
2022/08/20 02:24:47;;;;;;;1.97;1.77;;;;;;;19.76;100.00;101214.06;21030391;28;20044;-74
2022/08/20 02:34:49;;;;;;;1.48;1.38;;;;;;;19.59;100.00;101178.63;21040588;28;20040;-74
2022/08/20 02:44:51;;;;;;;1.60;1.48;;;;;;;19.75;100.00;101215.91;20995630;28;20048;-74
2022/08/20 02:54:53;;;;;;;1.70;1.60;;;;;;;19.76;100.00;101219.47;20969959;28;20135;-74
2022/08/20 03:04:54;;;;;;;1.58;1.48;;;;;;;19.74;100.00;101210.66;20964427;28;20049;-74
2022/08/20 03:14:56;;;;;;;1.55;1.40;;;;;;;19.74;100.00;101216.88;20927505;28;20429;-73
2022/08/20 03:24:59;;;;;;;1.50;1.40;;;;;;;19.75;100.00;101224.00;20925513;28;20110;-73
2022/08/20 03:35:01;;;;;;;1.73;1.40;;;;;;;19.72;100.00;101240.50;20943626;28;20102;-74
2022/08/20 03:45:05;;;;;;;1.60;1.50;;;;;;;19.73;100.00;101238.66;20932627;28;20094;-73
2022/08/20 03:55:08;;;;;;;1.40;1.30;;;;;;;19.71;100.00;101244.19;20926442;28;20056;-74
2022/08/20 04:05:09;;;;;;;1.48;1.38;;;;;;;19.72;100.00;101232.38;20886800;28;20114;-73
2022/08/20 04:15:14;;;;;;;1.90;1.52;;;;;;;19.71;100.00;101245.06;20882763;28;20051;-74
2022/08/20 04:25:16;;;;;;;1.52;1.42;;;;;;;19.70;100.00;101251.44;20980928;28;20450;-73
2022/08/20 04:35:18;;;;;;;1.55;1.45;;;;;;;19.51;100.00;101237.91;21046339;28;20063;-73
2022/08/20 04:45:20;;;;;;;1.63;1.35;;;;;;;19.70;100.00;101273.06;21044837;28;20406;-73
2022/08/20 04:55:22;;;;;;;1.80;1.70;;;;;;;19.69;100.00;101271.34;20978045;28;20036;-73
2022/08/20 05:05:25;;;;;;;1.95;1.65;;;;;;;19.69;100.00;101281.28;20912780;28;20107;-73
2022/08/20 05:15:26;;;;;;;1.67;1.50;;;;;;;19.44;100.00;101256.47;20945250;28;20050;-73
2022/08/20 05:25:29;;;;;;;1.70;1.48;;;;;;;19.69;100.00;101292.09;20942261;28;20504;-74
2022/08/20 05:35:33;;;;;;;1.50;1.25;;;;;;;19.68;100.00;101291.25;20930004;28;20451;-73
2022/08/20 05:45:37;;;;;;;2.13;1.40;;;;;;;19.68;100.00;101309.28;20951490;28;20566;-73
2022/08/20 05:55:39;;;;;;;2.35;1.50;;;;;;;19.68;100.00;101317.41;20947144;28;20051;-73
2022/08/20 06:05:41;;;;;;;1.55;1.38;;;;;;;19.63;100.00;101314.25;20912412;28;20051;-75
2022/08/20 06:15:42;;;;;;;1.70;1.30;;;;;;;19.67;100.00;101331.91;20938063;28;20044;-74
2022/08/20 06:25:44;;;;;;;2.70;1.63;;;;;;;19.62;100.00;101317.94;20923720;28;20075;-75
2022/08/20 06:35:47;;;;;;;2.00;1.30;;;;;;;19.68;100.00;101317.41;20918450;28;20052;-75
2022/08/20 06:45:49;;;;;;;2.15;1.30;;;;;;;19.59;100.00;101318.22;20933410;28;20049;-74
2022/08/20 06:55:53;;;;;;;1.67;1.45;;;;;;;19.68;100.00;101326.38;20922439;28;20049;-75
2022/08/20 07:05:54;;;;;;;2.50;1.37;;;;;;;19.69;100.00;101332.59;20951439;28;20501;-75
2022/08/20 07:15:56;;;;;;;2.67;1.55;;;;;;;19.68;100.00;101328.19;20957819;28;20055;-74
2022/08/20 07:25:57;;;;;;;1.75;1.58;;;;;;;19.69;100.00;101338.00;20935950;28;20048;-75
2022/08/20 07:36:02;;;;;;;2.53;1.35;;;;;;;19.70;100.00;101347.81;20953366;28;20056;-74
2022/08/20 07:46:07;;;;;;;2.97;1.47;;;;;;;19.58;100.00;101333.56;20957662;28;20381;-75
2022/08/20 07:56:15;;;;;;;2.38;1.10;;;;;;;19.49;100.00;101329.84;20913513;28;20060;-75
2022/08/20 08:06:19;;;;;;;2.20;1.38;;;;;;;19.59;100.00;101345.25;20906984;28;20060;-76
2022/08/20 08:16:31;;;;;;;2.22;1.40;;;;;;;19.71;100.00;101369.31;20887551;28;20049;-75
2022/08/20 08:26:32;;;;;;;2.13;1.35;;;;;;;19.63;100.00;101357.47;20867253;28;20060;-74
2022/08/20 08:36:34;;;;;;;1.23;0.90;;;;;;;19.73;100.00;101371.84;20882229;28;20183;-76
2022/08/20 08:46:42;;;;;;;2.70;1.15;;;;;;;19.73;100.00;101374.56;20898063;28;20174;-76
2022/08/20 08:56:44;;;;;;;2.10;1.00;;;;;;;19.74;100.00;101370.88;20896663;28;20127;-75
2022/08/20 09:06:53;;;;;;;2.33;1.00;;;;;;;19.75;100.00;101377.97;20883240;28;20135;-75
2022/08/20 09:16:55;;;;;;;1.80;1.00;;;;;;;19.61;100.00;101357.59;20877925;28;20045;-75
2022/08/20 09:26:56;;;;;;;1.05;0.80;;;;;;;19.79;100.00;101383.97;20873788;28;20072;-75
2022/08/20 09:36:58;;;;;;;1.92;0.90;;;;;;;19.79;100.00;101401.03;20900029;28;20090;-75
2022/08/20 09:46:59;;;;;;;2.70;1.15;;;;;;;19.80;100.00;101408.13;20886277;28;20041;-75
2022/08/20 09:57:04;;;;;;;3.05;1.00;;;;;;;19.79;100.00;101417.22;20925394;28;20523;-75
2022/08/20 10:07:06;;;;;;;;;;;;;;;19.79;100.00;101406.44;20911704;28;20508;-73
2022/08/20 10:17:08;;;;;;;2.55;0.77;;;;;;;19.66;100.00;101378.81;20908105;28;19960;-73
2022/08/20 10:27:10;;;;;;;2.65;0.90;;;;;;;19.92;100.00;101410.78;20910353;28;20558;-74
2022/08/20 10:37:16;;;;;;;1.30;0.90;;;;;;;19.90;100.00;101397.41;20915767;28;21728;-74
2022/08/20 10:47:23;;;;;;;1.27;0.70;;;;;;;20.03;100.00;101415.22;20920115;28;20079;-74
2022/08/20 10:57:27;;;;;;;1.42;0.75;;;;;;;20.06;100.00;101415.81;20919159;28;20094;-74
2022/08/20 11:07:33;;;;;;;1.63;0.70;;;;;;;20.07;100.00;101417.50;20924646;28;20094;-73
2022/08/20 11:17:55;;;;;;;1.70;0.65;;;;;;;20.10;100.00;101414.53;20916019;28;20072;-73
2022/08/20 11:27:57;;;;;;;1.35;0.70;;;;;;;20.12;100.00;101414.41;20914316;28;20068;-74
2022/08/20 11:38:00;;;;;;;2.38;0.80;;;;;;;20.12;100.00;101414.41;20907525;28;20045;-74
2022/08/20 11:48:01;;;;;;;1.50;0.90;;;;;;;20.08;100.00;101411.09;20909437;28;20049;-74
2022/08/20 11:58:03;;;;;;;1.27;0.68;;;;;;;20.06;100.00;101418.50;20880710;28;20076;-74
2022/08/20 12:08:05;;;;;;;3.10;0.90;;;;;;;20.04;100.00;101406.97;20894821;28;20049;-74
2022/08/20 12:18:07;;;;;;;1.05;0.60;;;;;;;20.02;100.00;101400.84;20894760;28;20110;-74
2022/08/20 12:28:11;;;;;;;1.30;0.57;;;;;;;20.00;100.00;101419.06;20887299;28;20131;-73
2022/08/20 12:38:13;;;;;;;4.40;0.90;;;;;;;20.02;100.00;101414.38;20909032;28;20068;-73
2022/08/20 12:48:14;;;;;;;1.60;0.70;;;;;;;20.05;100.00;101403.28;20908970;28;20113;-73
2022/08/20 12:58:16;;;;;;;1.98;0.90;;;;;;;20.19;99.61;101409.28;20906929;28;20052;-73
2022/08/20 13:08:19;;;;;;;1.83;0.68;;;;;;;20.23;98.47;101405.28;20910090;28;20053;-73
2022/08/20 13:18:21;;;;;;;2.90;1.00;;;;;;;20.25;97.50;101400.59;20896236;28;20044;-73
2022/08/20 13:28:22;;;;;;;2.80;0.80;;;;;;;20.30;97.10;101395.63;20892822;28;20088;-73
2022/08/20 13:38:24;;;;;;;2.15;0.68;;;;;;;20.33;96.93;101392.66;20882660;28;20092;-73
2022/08/20 13:48:26;;;;;;;5.88;1.17;;;;;;;20.33;97.17;101398.06;20867617;28;20056;-73
2022/08/20 13:58:27;;;;;;;2.60;0.70;;;;;;;20.33;96.66;101381.84;20882741;28;20128;-74
2022/08/20 14:08:29;;;;;;;2.90;0.80;;;;;;;20.32;96.41;101385.53;20893409;28;20126;-74
2022/08/20 14:18:30;;;;;;;2.55;1.10;;;;;;;20.29;96.71;101385.81;20884031;28;20152;-75
2022/08/20 14:28:32;;;;;;;1.90;0.75;;;;;;;20.01;96.75;101345.09;20893839;28;20878;-73
2022/08/20 14:38:33;;;;;;;2.00;0.93;;;;;;;20.16;96.61;101359.06;20892652;28;20137;-73
2022/08/20 14:48:35;;;;;;;1.30;0.70;;;;;;;20.26;96.59;101380.69;20896961;28;20134;-73
2022/08/20 14:58:36;;;;;;;3.38;0.90;;;;;;;20.24;96.43;101383.53;20889949;28;20401;-74
2022/08/20 15:08:38;;;;;;;3.17;1.00;;;;;;;20.25;97.78;101389.78;20912600;28;20136;-73
2022/08/20 15:18:42;;;;;;;3.40;1.08;;;;;;;20.22;97.39;101388.25;20916936;28;20404;-73
2022/08/20 15:28:43;;;;;;;3.13;1.10;;;;;;;20.18;97.01;101377.84;20907171;28;20055;-73
2022/08/20 15:38:45;;;;;;;3.33;0.80;;;;;;;20.06;97.15;101377.97;20899255;28;20061;-73
2022/08/20 15:48:47;;;;;;;1.85;0.75;;;;;;;20.02;96.79;101367.56;20875287;28;20048;-75
2022/08/20 15:58:57;;;;;;;1.83;0.70;;;;;;;19.86;96.37;101347.31;20868964;28;20087;-79
2022/08/20 16:09:29;;;;;;;1.20;0.75;;;;;;;20.06;95.98;101377.09;20894433;28;20413;-73
2022/08/20 16:19:39;;;;;;;2.80;1.00;;;;;;;19.83;95.11;101337.63;20880497;28;20703;-73
2022/08/20 16:30:02;;;;;;;1.88;1.00;;;;;;;20.04;94.68;101384.47;20869987;28;20155;-74
2022/08/20 16:40:27;;;;;;;5.85;1.20;;;;;;;20.02;94.60;101381.94;20861920;28;20698;-73
2022/08/20 16:50:39;;;;;;;;;;;;;;;20.01;94.55;101382.94;20862375;28;20059;-76
2022/08/20 17:00:40;;;;;;;2.88;1.55;;;;;;;19.77;94.67;101346.28;20946650;28;19967;-74
2022/08/20 17:10:53;;;;;;;3.58;1.80;;;;;;;19.97;94.61;101381.50;20929655;28;20040;-74
2022/08/20 17:21:10;;;;;;;3.13;1.50;;;;;;;19.91;94.37;101376.66;20949289;28;20049;-74
2022/08/20 17:31:18;;;;;;;7.07;2.05;;;;;;;19.94;94.44;101387.19;20942732;28;20448;-73
2022/08/20 17:41:28;;;;;;;4.50;1.67;;;;;;;19.92;94.29;101384.59;20931563;28;20102;-75
2022/08/20 17:51:43;;;;;;;3.28;1.30;;;;;;;19.91;94.14;101392.88;20895517;28;20471;-75
2022/08/20 18:01:44;;;;;;;4.53;1.47;;;;;;;19.90;94.33;101380.31;20890336;28;20492;-75
2022/08/20 18:12:01;;;;;;;2.63;1.55;;;;;;;19.89;94.50;101394.81;20919009;28;20063;-75
2022/08/20 18:22:12;;;;;;;3.67;1.40;;;;;;;19.86;94.64;101394.06;20927478;28;20052;-75
2022/08/20 18:32:30;;;;;;;2.75;1.40;;;;;;;19.86;95.02;101390.53;20912140;28;20393;-75
2022/08/20 18:42:34;;;;;;;3.58;1.50;;;;;;;19.84;95.19;101398.75;20914982;28;20525;-74
2022/08/20 18:52:38;;;;;;;4.07;1.42;;;;;;;19.84;95.26;101414.97;20910325;28;20048;-75
2022/08/20 19:02:54;;;;;;;3.08;1.50;;;;;;;19.83;95.47;101429.47;20907943;28;20508;-75
2022/08/20 19:13:14;;;;;;;2.95;1.63;;;;;;;19.83;95.66;101442.97;20920663;28;20045;-75
2022/08/20 19:23:22;;;;;;;4.05;1.65;;;;;;;19.81;95.65;101441.44;20907554;28;20067;-74
2022/08/20 19:33:29;;;;;;;4.10;1.67;;;;;;;19.81;96.27;101453.06;20914302;28;20129;-75
2022/08/20 19:43:40;;;;;;;2.50;1.30;;;;;;;19.80;96.01;101459.47;20967252;28;20562;-75
2022/08/20 19:53:45;;;;;;;2.72;1.45;;;;;;;19.70;96.11;101459.44;20965674;28;20626;-74
2022/08/20 20:03:59;;;;;;;4.07;2.03;;;;;;;19.74;96.28;101454.59;21009085;28;20048;-74
2022/08/20 20:14:03;;;;;;;2.50;1.52;;;;;;;19.78;96.36;101439.84;21047935;28;20070;-74
2022/08/20 20:24:05;;;;;;;3.97;1.65;;;;;;;19.47;96.29;101404.75;20965724;28;20448;-74
2022/08/20 20:34:10;;;;;;;1.90;1.10;;;;;;;19.76;96.11;101449.94;20966380;28;20451;-75
2022/08/20 20:44:15;;;;;;;2.17;1.40;;;;;;;19.76;96.53;101444.53;20949822;28;20060;-75
2022/08/20 20:54:39;;;;;;;3.08;1.60;;;;;;;19.74;96.75;101443.81;20967199;28;20083;-74
2022/08/20 21:04:43;;;;;;;1.75;1.30;;;;;;;19.73;96.66;101428.59;20923672;28;20127;-75
2022/08/20 21:14:45;;;;;;;2.93;1.57;;;;;;;19.73;96.72;101422.34;20949547;28;20044;-75
2022/08/20 21:24:50;;;;;;;2.95;1.25;;;;;;;19.72;96.93;101424.19;20940921;28;20266;-76
2022/08/20 21:34:51;;;;;;;2.60;1.27;;;;;;;19.53;97.04;101393.41;20953500;28;20055;-75
2022/08/20 21:44:53;;;;;;;2.03;1.23;;;;;;;19.70;97.09;101420.75;20949685;28;20501;-76
2022/08/20 21:54:55;;;;;;;3.00;1.00;;;;;;;19.70;97.07;101416.22;20950481;28;20386;-76
2022/08/20 22:04:56;;;;;;;2.55;1.17;;;;;;;19.69;97.27;101417.22;21029786;28;20040;-75
2022/08/20 22:14:58;;;;;;;2.78;1.35;;;;;;;19.69;97.46;101417.22;20956438;28;20064;-75
2022/08/20 22:24:59;;;;;;;2.17;1.20;;;;;;;19.69;97.28;101414.50;20950425;28;20051;-75
2022/08/20 22:35:02;;;;;;;2.80;1.45;;;;;;;19.68;97.30;101403.84;20956558;28;20094;-75
2022/08/20 22:45:03;;;;;;;2.25;1.33;;;;;;;19.67;97.27;101394.03;20932367;28;20447;-76
2022/08/20 22:55:13;;;;;;;2.35;1.15;;;;;;;19.65;97.25;101394.13;20935781;28;20078;-76
2022/08/20 23:05:17;;;;;;;1.67;1.10;;;;;;;19.66;97.30;101389.59;20968157;28;20052;-76
2022/08/20 23:15:19;;;;;;;2.45;1.08;;;;;;;19.65;97.22;101388.75;20965290;28;20072;-76
2022/08/20 23:25:20;;;;;;;1.85;1.10;;;;;;;19.56;97.00;101363.41;20961893;28;20040;-76
2022/08/20 23:35:22;;;;;;;2.03;1.17;;;;;;;19.64;97.03;101376.22;20955593;28;20048;-75
2022/08/20 23:45:31;;;;;;;1.77;1.10;;;;;;;19.55;96.72;101364.41;20959411;28;20128;-75
2022/08/20 23:55:32;;;;;;;1.83;1.10;;;;;;;19.53;96.87;101347.50;20938058;28;20060;-77
